CheckWX is a tool to help pilots better visualize weather data.  It is not intended as a substitute for an official pre-flight weather briefing.

09:49:16 UTC

KQEW METAR
Sangju Rws
Sangju Rws, South Korea
Current

19 mins ago

KQEW 200930Z AUTO 28004KT 4800 HZ SCT039 04/M04 A3026 RMK A02 TSNO
Observed
Feb-20 @ 09:30 UTC
Wind
  • 280° at 4 KTS
Visibility
4,796 meters
Flight Rules
IFR
Conditions
Haze
Cloud Levels
  • Scattered at 3,900' AGL
Temperature
C / 39°F
Dewpoint
-4°C / 25°F
Humidity
56%
Altimeter
30.26" Hg
Pressure
1024.72 hPa
Previous

29 mins ago

KQEW 200920Z AUTO 27007KT 4800 HZ BKN038 04/M05 A3026 RMK A02 TSNO
Observed
Feb-20 @ 09:20 UTC
Wind
  • 270° at 7 KTS
Visibility
4,796 meters
Flight Rules
IFR
Conditions
Haze
Cloud Levels
  • Broken at 3,800' AGL
Temperature
C / 39°F
Dewpoint
-5°C / 23°F
Humidity
52%
Altimeter
30.26" Hg
Pressure
1024.72 hPa
Previous

49 mins ago

KQEW 200900Z AUTO 28007KT 4800 HZ BKN037 04/M04 A3024 RMK A02 TSNO
Observed
Feb-20 @ 09:00 UTC
Wind
  • 280° at 7 KTS
Visibility
4,796 meters
Flight Rules
IFR
Conditions
Haze
Cloud Levels
  • Broken at 3,700' AGL
Temperature
C / 39°F
Dewpoint
-4°C / 25°F
Humidity
56%
Altimeter
30.24" Hg
Pressure
1024.02 hPa